Portada
METAR-TAF:

METAR-TAF

Aeroports :

Lampang, Tailàndia

latitud: 18-17N, longitud: 099-31E, altitud: 241 m

Observació

L'informe es va fer fa 9 hores i 38 minuts, a les 12:00 UTC
Vent 3 kt del Est/Sud-Est
Temperatura 26°C
Humitat 39%
Pressió 1011 hPa
Visibilitat 10 km o més
sense núvols per sota de 1500 mi sense presència de cumulonimbus.

METAR: VTCL 161200Z 12003KT CAVOK 26/11 Q1011 NOSIG

Hora: 04:38 (21:38 UTC)

Pronòstic

L'informe es va fer fa 4 hores i 38 minuts, a les 17:00 UTC
Pronòstic vàlid del 16 a les 18 UTC al 17 a les 18 UTC
Vent 4 kt del Nord/Nord-Est
Visibilitat 10 km o més
Escasses núvols a una alçada de 2500 ft
Evolucionant progressivament
l' 17 a les 03 UTC al 17 a les 05 UTC
Vent 8 kt del Sud/Sud-Est

TAF: VTCL 161700Z 1618/1718 03004KT 9999 FEW025 BECMG 1703/1705 16008KT

Observacions i pronòstics meteorològics de més de 4000 aeroports (METAR i TAF).

Les estacions disponibles són els punts grocs i vermells al mapa.

Posi el ratolí al punt desitjat per veure el nom de l'estació.

Feu clic per veure les observacions i els pronòstics meteorològics.

Per canviar el mapa: feu clic els botons verds amb una creu de color negre per apropar; al botó verd amb un guió per allunyar la imatge; o en les fletxes verdes per a mapes adjacents.


METAR-TAF: